createdAt,value
2018-06-23T00:00:39.416Z,9.70
2018-06-23T00:03:10.113Z,9.64
2018-06-23T00:05:39.569Z,9.73
2018-06-23T00:08:09.215Z,9.70
2018-06-23T00:10:38.651Z,9.68
2018-06-23T00:13:08.071Z,9.90
2018-06-23T00:15:37.525Z,9.76
2018-06-23T00:18:07.050Z,9.53
2018-06-23T00:20:36.427Z,9.66
2018-06-23T00:23:05.867Z,9.79
2018-06-23T00:25:40.263Z,9.71
2018-06-23T00:28:10.182Z,9.47
2018-06-23T00:30:39.640Z,9.49
2018-06-23T00:33:09.054Z,9.35
2018-06-23T00:35:38.443Z,9.43
2018-06-23T00:38:07.831Z,9.51
2018-06-23T00:40:37.286Z,9.37
2018-06-23T00:43:06.787Z,9.32
2018-06-23T00:45:36.224Z,9.37
2018-06-23T00:48:05.679Z,9.49
2018-06-23T00:50:35.128Z,9.34
2018-06-23T00:53:04.608Z,9.38
2018-06-23T00:55:34.089Z,9.44
2018-06-23T00:58:03.635Z,9.51
2018-06-23T01:00:33.231Z,9.53
2018-06-23T01:03:02.633Z,9.19
2018-06-23T01:05:32.094Z,9.26
2018-06-23T01:08:01.574Z,9.34
2018-06-23T01:10:31.042Z,9.36
2018-06-23T01:13:00.411Z,9.12
2018-06-23T01:15:29.879Z,9.26
2018-06-23T01:17:59.270Z,9.23
2018-06-23T01:20:28.772Z,9.18
2018-06-23T01:22:58.185Z,9.24
2018-06-23T01:25:27.648Z,9.08
2018-06-23T01:27:57.065Z,9.05
2018-06-23T01:30:26.533Z,9.17
2018-06-23T01:32:56.030Z,9.17
2018-06-23T01:35:25.415Z,8.91
2018-06-23T01:37:54.804Z,8.79
2018-06-23T01:40:24.204Z,8.92
2018-06-23T01:42:53.641Z,8.95
2018-06-23T01:45:23.052Z,9.09
2018-06-23T01:47:52.555Z,9.04
2018-06-23T01:50:21.926Z,8.90
2018-06-23T01:52:51.335Z,8.74
2018-06-23T01:55:20.736Z,8.75
2018-06-23T01:57:50.178Z,8.76
2018-06-23T02:00:19.648Z,8.83
2018-06-23T02:02:49.107Z,8.81
2018-06-23T02:05:18.544Z,8.79
2018-06-23T02:07:47.975Z,8.73
2018-06-23T02:10:17.440Z,8.59
2018-06-23T02:12:46.653Z,8.76
2018-06-23T02:15:16.039Z,8.71
2018-06-23T02:17:50.401Z,8.78
2018-06-23T02:22:30.306Z,8.75
2018-06-23T02:25:04.986Z,8.78
2018-06-23T02:27:39.526Z,8.55
2018-06-23T02:30:14.069Z,8.62
2018-06-23T02:32:45.216Z,8.52
2018-06-23T02:35:14.671Z,8.53
2018-06-23T02:37:44.083Z,8.66
2018-06-23T02:40:13.552Z,8.63
2018-06-23T02:42:42.916Z,8.39
2018-06-23T02:45:12.406Z,8.27
2018-06-23T02:47:43.359Z,8.33
2018-06-23T02:50:12.797Z,8.39
2018-06-23T02:52:42.197Z,8.28
2018-06-23T02:55:11.622Z,8.31
2018-06-23T02:57:40.771Z,8.29
2018-06-23T03:00:10.287Z,8.21
2018-06-23T03:02:39.733Z,8.25
2018-06-23T03:05:09.747Z,8.38
2018-06-23T03:07:38.949Z,8.34
2018-06-23T03:10:08.371Z,8.28
2018-06-23T03:12:37.772Z,8.18
2018-06-23T03:15:07.237Z,8.22
2018-06-23T03:17:36.399Z,8.27
2018-06-23T03:20:05.830Z,8.31
2018-06-23T03:22:35.293Z,8.19
2018-06-23T03:25:04.752Z,8.13
2018-06-23T03:27:34.164Z,8.10
2018-06-23T03:30:03.741Z,8.04
2018-06-23T03:32:33.207Z,8.03
2018-06-23T03:35:02.631Z,8.13
2018-06-23T03:37:32.050Z,8.26
2018-06-23T03:40:01.467Z,8.21
2018-06-23T03:42:30.912Z,8.15
2018-06-23T03:45:00.356Z,8.08
2018-06-23T03:47:29.761Z,8.10
2018-06-23T03:49:59.285Z,8.17
2018-06-23T03:52:28.706Z,8.18
2018-06-23T03:54:58.136Z,8.06
2018-06-23T03:57:27.501Z,8.03
2018-06-23T03:59:56.902Z,8.07
2018-06-23T04:02:26.306Z,8.13
2018-06-23T04:04:55.716Z,8.18
2018-06-23T04:07:25.234Z,8.10
2018-06-23T04:09:54.608Z,8.10
2018-06-23T04:12:24.550Z,8.09
2018-06-23T04:14:53.994Z,8.16
2018-06-23T04:17:23.416Z,8.10
2018-06-23T04:19:52.853Z,8.13
2018-06-23T04:22:22.288Z,8.27
2018-06-23T04:24:51.725Z,8.18
2018-06-23T04:27:21.150Z,8.28
2018-06-23T04:29:50.908Z,8.28
2018-06-23T04:32:20.354Z,8.25
2018-06-23T04:34:49.771Z,8.37
2018-06-23T04:37:19.219Z,8.35
2018-06-23T04:39:48.629Z,8.57
2018-06-23T04:42:18.083Z,8.65
2018-06-23T04:44:47.480Z,8.78
2018-06-23T04:47:16.923Z,8.93
2018-06-23T04:49:46.852Z,8.97
2018-06-23T04:52:16.249Z,8.99
2018-06-23T04:54:45.646Z,9.03
2018-06-23T04:57:15.060Z,9.16
2018-06-23T04:59:44.454Z,9.23
2018-06-23T05:02:13.974Z,9.28
2018-06-23T05:04:43.409Z,9.17
2018-06-23T05:07:12.862Z,9.35
2018-06-23T05:09:42.295Z,9.46
2018-06-23T05:12:11.796Z,9.48
2018-06-23T05:14:41.163Z,9.60
2018-06-23T05:17:10.633Z,9.68
2018-06-23T05:19:40.017Z,9.70
2018-06-23T05:22:09.440Z,9.81
2018-06-23T05:24:38.810Z,9.82
2018-06-23T05:27:08.203Z,9.92
2018-06-23T05:29:37.616Z,10.09
2018-06-23T05:32:07.241Z,10.09
2018-06-23T05:34:36.739Z,10.11
2018-06-23T05:37:06.171Z,10.28
2018-06-23T05:39:35.598Z,10.40
2018-06-23T05:42:05.043Z,10.51
2018-06-23T05:44:34.473Z,10.47
2018-06-23T05:47:03.896Z,10.43
2018-06-23T05:49:33.308Z,10.51
2018-06-23T05:52:02.689Z,10.60
2018-06-23T05:54:32.145Z,10.76
2018-06-23T05:57:01.582Z,10.89
2018-06-23T05:59:30.922Z,11.01
2018-06-23T06:02:00.368Z,11.08
2018-06-23T06:04:29.753Z,11.26
2018-06-23T06:06:59.257Z,11.38
2018-06-23T06:09:28.649Z,11.54
2018-06-23T06:11:58.083Z,11.51
2018-06-23T06:14:27.955Z,11.63
2018-06-23T06:17:26.091Z,11.76
2018-06-23T06:19:56.605Z,11.77
2018-06-23T06:22:27.236Z,11.92
2018-06-23T06:24:56.907Z,11.96
2018-06-23T06:27:26.438Z,12.06
2018-06-23T06:29:56.989Z,12.12
2018-06-23T06:32:26.906Z,12.25
2018-06-23T06:34:56.404Z,12.33
2018-06-23T06:37:25.889Z,12.43
2018-06-23T06:39:55.257Z,12.58
2018-06-23T06:42:24.748Z,12.64
2018-06-23T06:44:54.214Z,12.75
2018-06-23T06:47:23.681Z,12.70
2018-06-23T06:49:52.842Z,12.74
2018-06-23T06:52:22.294Z,12.76
2018-06-23T06:54:51.396Z,12.80
2018-06-23T06:57:21.894Z,12.85
2018-06-23T06:59:51.378Z,12.89
2018-06-23T07:02:20.785Z,12.95
2018-06-23T07:04:50.416Z,13.10
2018-06-23T07:07:19.884Z,13.28
2018-06-23T07:09:49.303Z,13.32
2018-06-23T07:12:18.764Z,13.40
2018-06-23T07:14:48.887Z,13.43
2018-06-23T07:17:18.308Z,13.49
2018-06-23T07:19:47.792Z,13.59
2018-06-23T07:22:17.227Z,13.71
2018-06-23T07:24:46.701Z,13.77
2018-06-23T07:27:16.155Z,13.78
2018-06-23T07:29:45.579Z,13.85
2018-06-23T07:32:14.970Z,13.83
2018-06-23T07:34:44.519Z,13.71
2018-06-23T07:37:13.938Z,13.60
2018-06-23T07:39:43.367Z,13.54
2018-06-23T07:42:12.768Z,13.56
2018-06-23T07:44:42.215Z,13.55
2018-06-23T07:47:11.671Z,13.46
2018-06-23T07:49:41.115Z,13.43
2018-06-23T07:52:10.537Z,13.44
2018-06-23T07:54:39.961Z,13.54
2018-06-23T07:57:09.410Z,13.67
2018-06-23T07:59:38.830Z,13.77
2018-06-23T08:02:08.308Z,13.86
2018-06-23T08:04:37.734Z,13.97
2018-06-23T08:07:07.193Z,14.08
2018-06-23T08:09:36.595Z,14.26
2018-06-23T08:12:06.130Z,14.34
2018-06-23T08:14:35.625Z,14.34
2018-06-23T08:17:05.143Z,14.34
2018-06-23T08:19:34.532Z,14.43
2018-06-23T08:22:03.946Z,14.47
2018-06-23T08:24:33.327Z,14.48
2018-06-23T08:27:02.756Z,14.45
2018-06-23T08:29:32.267Z,14.54
2018-06-23T08:32:01.675Z,14.61
2018-06-23T08:34:31.123Z,14.71
2018-06-23T08:37:00.548Z,14.75
2018-06-23T08:39:30.078Z,14.84
2018-06-23T08:41:59.599Z,14.82
2018-06-23T08:44:29.008Z,14.82
2018-06-23T08:46:58.448Z,14.72
2018-06-23T08:49:27.926Z,14.80
2018-06-23T08:51:57.347Z,14.84
2018-06-23T08:54:27.759Z,14.82
2018-06-23T08:56:57.297Z,14.82
2018-06-23T08:59:26.705Z,14.81
2018-06-23T09:01:56.690Z,14.87
2018-06-23T09:04:26.306Z,14.98
2018-06-23T09:06:55.800Z,15.07
2018-06-23T09:09:25.566Z,15.11
2018-06-23T09:11:54.986Z,15.21
2018-06-23T09:14:24.458Z,15.35
2018-06-23T09:16:53.977Z,15.42
2018-06-23T09:19:23.413Z,15.48
2018-06-23T09:21:52.866Z,15.53
2018-06-23T09:24:22.278Z,15.71
2018-06-23T09:26:51.407Z,15.63
2018-06-23T09:29:20.853Z,15.70
2018-06-23T09:31:50.308Z,15.79
2018-06-23T09:34:19.804Z,15.81
2018-06-23T09:36:48.955Z,15.77
2018-06-23T09:39:18.386Z,15.73
2018-06-23T09:41:47.873Z,15.86
2018-06-23T09:44:17.365Z,15.88
2018-06-23T09:46:46.819Z,15.97
2018-06-23T09:49:16.250Z,16.06
2018-06-23T09:51:45.702Z,16.18
2018-06-23T09:54:15.097Z,16.26
2018-06-23T09:56:44.577Z,16.28
2018-06-23T09:59:14.044Z,16.35
2018-06-23T10:01:43.171Z,16.50
2018-06-23T10:04:12.612Z,16.67
2018-06-23T10:06:42.045Z,16.88
2018-06-23T10:09:11.739Z,17.03
2018-06-23T10:11:41.185Z,17.13
2018-06-23T10:14:10.612Z,17.20
2018-06-23T10:16:40.060Z,17.30
2018-06-23T10:19:09.531Z,17.37
2018-06-23T10:21:38.962Z,17.45
2018-06-23T10:24:08.371Z,17.50
2018-06-23T10:26:37.744Z,17.58
2018-06-23T10:29:07.224Z,17.75
2018-06-23T10:31:36.677Z,17.63
2018-06-23T10:34:06.680Z,17.67
2018-06-23T10:36:36.130Z,17.71
2018-06-23T10:39:09.388Z,17.83
2018-06-23T10:41:39.424Z,17.90
2018-06-23T10:44:08.931Z,18.01
2018-06-23T10:46:38.351Z,18.09
2018-06-23T10:49:07.795Z,18.02
2018-06-23T10:51:37.449Z,18.01
2018-06-23T10:54:07.199Z,17.97
2018-06-23T10:56:36.604Z,18.01
2018-06-23T10:59:06.121Z,17.97
2018-06-23T11:01:35.580Z,17.97
2018-06-23T11:04:05.037Z,17.94
2018-06-23T11:06:34.526Z,18.09
2018-06-23T11:09:04.715Z,18.15
2018-06-23T11:11:35.069Z,18.08
2018-06-23T11:14:04.545Z,18.01
2018-06-23T11:16:33.980Z,18.08
2018-06-23T11:19:03.961Z,18.18
2018-06-23T11:21:33.592Z,18.07
2018-06-23T11:24:03.016Z,18.21
2018-06-23T11:26:32.399Z,18.18
2018-06-23T11:29:01.848Z,18.20
2018-06-23T11:31:31.246Z,18.18
2018-06-23T11:34:00.674Z,18.34
2018-06-23T11:36:30.091Z,18.49
2018-06-23T11:38:59.498Z,18.73
2018-06-23T11:41:28.935Z,18.92
2018-06-23T11:43:58.130Z,18.89
2018-06-23T11:46:27.649Z,18.80
2018-06-23T11:48:57.104Z,18.72
2018-06-23T11:51:26.569Z,18.64
2018-06-23T11:53:55.991Z,18.81
2018-06-23T11:56:25.396Z,18.89
2018-06-23T11:58:54.821Z,18.79
2018-06-23T12:01:24.259Z,18.97
2018-06-23T12:03:53.677Z,19.17
2018-06-23T12:06:24.994Z,19.29
2018-06-23T12:08:55.751Z,19.29
2018-06-23T12:11:26.129Z,19.23
2018-06-23T12:13:55.565Z,19.18
2018-06-23T12:16:25.033Z,19.05
2018-06-23T12:18:54.525Z,19.06
2018-06-23T12:21:23.967Z,19.10
2018-06-23T12:23:53.553Z,18.82
2018-06-23T12:26:22.980Z,18.83
2018-06-23T12:28:52.403Z,18.86
2018-06-23T12:31:21.852Z,18.96
2018-06-23T12:33:51.287Z,18.99
2018-06-23T12:36:20.692Z,18.88
2018-06-23T12:38:50.148Z,18.89
2018-06-23T12:41:19.606Z,19.06
2018-06-23T12:43:49.080Z,19.18
2018-06-23T12:46:18.550Z,19.14
2018-06-23T12:48:48.001Z,18.93
2018-06-23T12:51:17.440Z,19.06
2018-06-23T12:53:46.942Z,19.08
2018-06-23T12:56:16.426Z,19.18
2018-06-23T12:58:45.836Z,19.20
2018-06-23T13:01:15.312Z,19.19
2018-06-23T13:03:44.929Z,19.19
2018-06-23T13:06:14.353Z,19.20
2018-06-23T13:08:44.433Z,19.11
2018-06-23T13:11:13.964Z,19.00
2018-06-23T13:13:43.334Z,19.07
2018-06-23T13:16:12.836Z,19.12
2018-06-23T13:18:42.807Z,19.02
2018-06-23T13:21:12.320Z,19.10
2018-06-23T13:23:41.764Z,18.92
2018-06-23T13:26:11.222Z,18.96
2018-06-23T13:28:40.620Z,18.83
2018-06-23T13:31:10.059Z,18.80
2018-06-23T13:33:39.516Z,18.80
2018-06-23T13:36:08.628Z,18.68
2018-06-23T13:38:38.072Z,18.82
2018-06-23T13:41:07.673Z,18.89
2018-06-23T13:43:37.069Z,18.78
2018-06-23T13:46:06.622Z,18.77
2018-06-23T13:48:35.766Z,18.76
2018-06-23T13:51:05.384Z,18.73
2018-06-23T13:53:34.782Z,18.68
2018-06-23T13:56:04.347Z,18.58
2018-06-23T13:58:33.860Z,18.60
2018-06-23T14:01:03.397Z,18.53
2018-06-23T14:03:32.821Z,18.65
2018-06-23T14:06:02.209Z,18.50
2018-06-23T14:08:31.667Z,18.53
2018-06-23T14:11:01.068Z,18.57
2018-06-23T14:13:30.553Z,18.82
2018-06-23T14:16:00.047Z,18.89
2018-06-23T14:18:29.691Z,19.01
2018-06-23T14:20:59.216Z,18.92
2018-06-23T14:23:28.835Z,18.76
2018-06-23T14:25:58.269Z,18.42
2018-06-23T14:28:27.683Z,18.47
2018-06-23T14:30:57.155Z,18.31
2018-06-23T14:33:26.658Z,18.39
2018-06-23T14:35:56.065Z,18.38
2018-06-23T14:38:25.496Z,18.46
2018-06-23T14:40:54.908Z,18.34
2018-06-23T14:43:24.289Z,18.34
2018-06-23T14:45:53.871Z,18.22
2018-06-23T14:48:23.023Z,18.32
2018-06-23T14:50:52.460Z,18.40
2018-06-23T14:53:21.606Z,18.53
2018-06-23T14:55:51.086Z,18.34
2018-06-23T14:58:20.531Z,18.24
2018-06-23T15:00:49.982Z,18.22
2018-06-23T15:03:19.124Z,18.24
2018-06-23T15:05:48.569Z,18.18
2018-06-23T15:08:35.345Z,18.28
2018-06-23T15:11:21.585Z,18.54
2018-06-23T15:13:50.702Z,18.47
2018-06-23T15:16:20.118Z,18.44
2018-06-23T15:18:49.490Z,18.48
2018-06-23T15:21:18.635Z,18.52
2018-06-23T15:23:48.062Z,18.34
2018-06-23T15:26:17.556Z,18.47
2018-06-23T15:28:46.946Z,18.55
2018-06-23T15:31:16.399Z,18.75
2018-06-23T15:33:45.860Z,18.82
2018-06-23T15:36:15.335Z,18.72
2018-06-23T15:38:44.766Z,18.44
2018-06-23T15:41:14.166Z,18.18
2018-06-23T15:43:43.583Z,18.19
2018-06-23T15:46:12.998Z,18.12
2018-06-23T15:48:42.424Z,18.20
2018-06-23T15:51:12.015Z,18.17
2018-06-23T15:53:41.445Z,18.11
2018-06-23T15:56:10.912Z,18.05
2018-06-23T15:58:40.352Z,18.15
2018-06-23T16:01:09.834Z,18.22
2018-06-23T16:03:39.285Z,18.18
2018-06-23T16:06:08.666Z,18.20
2018-06-23T16:08:38.215Z,18.12
2018-06-23T16:11:07.731Z,18.15
2018-06-23T16:13:37.308Z,18.17
2018-06-23T16:16:06.754Z,18.24
2018-06-23T16:18:36.157Z,18.17
2018-06-23T16:21:05.680Z,18.26
2018-06-23T16:23:35.128Z,18.26
2018-06-23T16:26:04.642Z,18.10
2018-06-23T16:28:33.852Z,17.95
2018-06-23T16:31:03.234Z,17.97
2018-06-23T16:33:32.722Z,17.98
2018-06-23T16:36:02.200Z,18.00
2018-06-23T16:38:31.657Z,18.00
2018-06-23T16:41:01.128Z,18.10
2018-06-23T16:43:30.580Z,17.99
2018-06-23T16:46:00.068Z,17.83
2018-06-23T16:48:29.496Z,17.86
2018-06-23T16:50:58.987Z,17.89
2018-06-23T16:53:28.410Z,17.92
2018-06-23T16:55:57.841Z,17.94
2018-06-23T16:58:27.306Z,17.76
2018-06-23T17:00:56.788Z,17.72
2018-06-23T17:03:26.317Z,17.65
2018-06-23T17:05:55.710Z,17.66
2018-06-23T17:08:25.163Z,17.68
2018-06-23T17:10:54.556Z,17.38
2018-06-23T17:13:24.016Z,17.29
2018-06-23T17:15:53.416Z,17.28
2018-06-23T17:18:22.835Z,17.27
2018-06-23T17:20:52.375Z,17.26
2018-06-23T17:23:21.917Z,17.24
2018-06-23T17:25:52.334Z,17.24
2018-06-23T17:28:21.820Z,17.28
2018-06-23T17:30:51.218Z,17.32
2018-06-23T17:33:20.655Z,17.33
2018-06-23T17:35:50.867Z,17.19
2018-06-23T17:38:20.313Z,17.34
2018-06-23T17:40:49.784Z,17.39
2018-06-23T17:43:19.246Z,17.29
2018-06-23T17:45:48.680Z,17.28
2018-06-23T17:48:18.161Z,17.31
2018-06-23T17:50:47.521Z,17.40
2018-06-23T17:53:16.980Z,17.32
2018-06-23T17:55:46.437Z,17.29
2018-06-23T17:58:15.889Z,17.15
2018-06-23T18:00:45.402Z,17.11
2018-06-23T18:03:14.945Z,17.10
2018-06-23T18:05:44.373Z,16.99
2018-06-23T18:08:13.856Z,16.84
2018-06-23T18:10:43.303Z,16.90
2018-06-23T18:13:12.505Z,16.92
2018-06-23T18:15:41.929Z,16.92
2018-06-23T18:18:11.418Z,16.95
2018-06-23T18:20:40.824Z,16.95
2018-06-23T18:23:09.984Z,16.74
2018-06-23T18:25:39.514Z,16.75
2018-06-23T18:28:09.025Z,16.55
2018-06-23T18:30:38.155Z,16.63
2018-06-23T18:33:07.759Z,16.57
2018-06-23T18:35:37.186Z,16.48
2018-06-23T18:38:07.148Z,16.49
2018-06-23T18:40:36.566Z,16.42
2018-06-23T18:43:06.060Z,16.47
2018-06-23T18:45:35.955Z,16.20
2018-06-23T18:48:05.495Z,16.20
2018-06-23T18:50:34.918Z,16.13
2018-06-23T18:53:04.540Z,16.03
2018-06-23T18:55:34.011Z,16.07
2018-06-23T18:58:03.489Z,15.90
2018-06-23T19:00:32.973Z,15.95
2018-06-23T19:03:02.423Z,15.98
2018-06-23T19:05:31.831Z,15.72
2018-06-23T19:08:01.291Z,15.65
2018-06-23T19:10:30.763Z,15.51
2018-06-23T19:13:00.176Z,15.29
2018-06-23T19:15:29.661Z,15.41
2018-06-23T19:17:59.049Z,15.43
2018-06-23T19:20:28.227Z,15.43
2018-06-23T19:22:57.639Z,15.35
2018-06-23T19:25:27.512Z,15.19
2018-06-23T19:27:56.996Z,15.07
2018-06-23T19:30:26.449Z,15.13
2018-06-23T19:32:55.916Z,15.15
2018-06-23T19:35:25.410Z,14.88
2018-06-23T19:37:54.532Z,14.83
2018-06-23T19:40:24.109Z,14.77
2018-06-23T19:42:53.628Z,14.73
2018-06-23T19:45:23.222Z,14.79
2018-06-23T19:47:52.398Z,14.61
2018-06-23T19:50:21.835Z,14.46
2018-06-23T19:52:51.255Z,14.51
2018-06-23T19:55:20.724Z,14.60
2018-06-23T19:57:50.231Z,14.39
2018-06-23T20:00:19.712Z,14.30
2018-06-23T20:02:49.179Z,14.26
2018-06-23T20:05:18.690Z,14.34
2018-06-23T20:07:48.065Z,14.42
2018-06-23T20:12:08.270Z,14.32
2018-06-23T20:14:37.766Z,14.31
2018-06-23T20:17:07.320Z,14.22
2018-06-23T20:19:36.682Z,14.15
2018-06-23T20:22:06.300Z,14.16
2018-06-23T20:24:35.725Z,14.17
2018-06-23T20:27:05.413Z,14.11
2018-06-23T20:29:34.649Z,14.12
2018-06-23T20:32:04.099Z,14.12
2018-06-23T20:34:33.498Z,14.07
2018-06-23T20:37:02.923Z,14.15
2018-06-23T20:39:32.061Z,14.07
2018-06-23T20:42:01.533Z,14.08
2018-06-23T20:44:31.096Z,14.15
2018-06-23T20:47:00.774Z,14.10
2018-06-23T20:49:30.193Z,14.12
2018-06-23T20:51:59.626Z,14.13
2018-06-23T20:54:29.557Z,14.15
2018-06-23T20:56:59.016Z,14.00
2018-06-23T20:59:28.461Z,13.85
2018-06-23T21:01:57.866Z,13.81
2018-06-23T21:04:27.282Z,13.88
2018-06-23T21:06:56.737Z,13.73
2018-06-23T21:09:26.225Z,13.70
2018-06-23T21:11:55.660Z,13.75
2018-06-23T21:14:25.126Z,13.72
2018-06-23T21:16:54.628Z,13.86
2018-06-23T21:19:24.151Z,13.85
2018-06-23T21:21:53.542Z,13.81
2018-06-23T21:24:23.102Z,13.75
2018-06-23T21:26:52.591Z,13.76
2018-06-23T21:29:22.051Z,13.63
2018-06-23T21:31:51.528Z,13.69
2018-06-23T21:34:21.996Z,13.75
2018-06-23T21:36:51.483Z,13.68
2018-06-23T21:39:20.881Z,13.62
2018-06-23T21:41:50.388Z,13.52
2018-06-23T21:44:19.919Z,13.56
2018-06-23T21:46:49.384Z,13.49
2018-06-23T21:49:18.846Z,13.31
2018-06-23T21:51:48.279Z,13.31
2018-06-23T21:54:17.717Z,13.27
2018-06-23T21:56:47.162Z,12.97
2018-06-23T21:59:16.551Z,12.98
2018-06-23T22:01:46.098Z,12.99
2018-06-23T22:04:15.576Z,12.98
2018-06-23T22:06:44.932Z,13.04
2018-06-23T22:09:14.455Z,12.93
2018-06-23T22:11:43.960Z,12.91
2018-06-23T22:14:13.402Z,12.88
2018-06-23T22:16:42.829Z,12.70
2018-06-23T22:19:12.286Z,12.82
2018-06-23T22:21:41.775Z,12.71
2018-06-23T22:24:11.226Z,12.65
2018-06-23T22:26:40.727Z,12.49
2018-06-23T22:29:10.133Z,12.51
2018-06-23T22:31:39.544Z,12.43
2018-06-23T22:34:09.000Z,12.52
2018-06-23T22:36:38.442Z,12.48
2018-06-23T22:39:10.676Z,12.56
2018-06-23T22:41:40.143Z,12.50
2018-06-23T22:44:09.858Z,12.34
2018-06-23T22:46:39.290Z,12.28
2018-06-23T22:49:08.710Z,12.18
2018-06-23T22:51:38.208Z,12.10
2018-06-23T22:54:07.691Z,12.12
2018-06-23T22:56:37.111Z,12.19
2018-06-23T22:59:06.772Z,12.17
2018-06-23T23:01:36.221Z,11.99
2018-06-23T23:04:05.657Z,12.05
2018-06-23T23:06:35.098Z,11.99
2018-06-23T23:09:06.441Z,11.83
2018-06-23T23:11:35.873Z,11.70
2018-06-23T23:14:06.245Z,11.69
2018-06-23T23:16:36.023Z,11.80
2018-06-23T23:19:05.520Z,11.80
2018-06-23T23:21:34.999Z,11.61
2018-06-23T23:24:04.431Z,11.57
2018-06-23T23:26:33.836Z,11.63
2018-06-23T23:29:03.245Z,11.64
2018-06-23T23:31:32.592Z,11.70
2018-06-23T23:34:02.037Z,11.55
2018-06-23T23:36:31.437Z,11.52
2018-06-23T23:39:00.894Z,11.52
2018-06-23T23:41:30.309Z,11.50
2018-06-23T23:43:59.754Z,11.52
2018-06-23T23:46:29.234Z,11.56
2018-06-23T23:48:58.729Z,11.42
2018-06-23T23:51:28.205Z,11.40
2018-06-23T23:53:57.829Z,11.38
2018-06-23T23:56:27.295Z,11.35
2018-06-23T23:58:56.894Z,11.24
